Sunbury, Australia
Current Conditions -  °F | °C
As of 8:00 AM on Tuesday 21 Oct 2014 (Local Time) from YMML Reporting Station
Clear Clear  
Wind Chill: 50°   Ceiling: Unl
Heat Index: 50°   Visibility: 6mi
Dew Point: 45°   Wind: 6mph
Humidity: 82%   Direction: 40°NE
Pressure: 30.33"   Gusts: NA
Location:  37.58°S, 144.73°E
Report Text: YMML 202100Z 04005KT CAVOK 10/07 Q1027 FM2230 36015G26KT CAVOK FM2100 MOD TURB BLW 5000FT
Loading
Personal Weather Stations






























Interactive Weather Map
Tropical Storm Tracking
New forecast layout! Learn more

10-Day Weather Forecast

Advertisements
Track Severe Weather on mobile